Time;durP1;ratioP1;P1;durP2;ratioP2;P2;SDS_P1;SDS_P2;PMS_P1;PMS_P2;Temp;Humidity;BMP_temperature;BMP_pressure;BME280_temperature;BME280_humidity;BME280_pressure;Samples;Min_cycle;Max_cycle;Signal;HPM_P1;HPM_P2
2023/01/14 00:00:04;;;;;;;;;;;;;;;12.67;74.03;101030.00;1047564;28;1905;-72
2023/01/14 00:00:54;;;;;;;;;;;;;;;12.66;73.72;101028.28;1051789;28;1221;-72
2023/01/14 00:01:45;;;;;;;;;;;;;;;12.65;74.07;101022.06;1048357;28;677;-72
2023/01/14 00:02:35;;;;;;;;;;;;;;;12.65;73.89;101030.09;1052462;28;1131;-72
2023/01/14 00:03:25;;;;;;;;;;;;;;;12.64;74.00;101031.06;1051740;28;604;-72
2023/01/14 00:04:16;;;;;;;;;;;;;;;12.66;73.89;101030.94;1052086;28;665;-72
2023/01/14 00:05:06;;;;;;;;;;;;;;;12.65;74.05;101026.56;1052950;28;688;-72
2023/01/14 00:05:58;;;;;;;;;;;;;;;12.65;73.75;101029.25;1051861;28;705;-72
2023/01/14 00:06:50;;;;;;;;;;;;;;;12.65;73.68;101030.09;1052569;28;685;-72
2023/01/14 00:07:40;;;;;;;;;;;;;;;12.66;73.28;101037.16;1051578;28;776;-72
2023/01/14 00:08:31;;;;;;;;;;;;;;;12.64;74.22;101028.38;1052442;28;832;-72
2023/01/14 00:09:21;;;;;;;;;;;;;;;12.66;73.58;101034.47;1051799;28;1044;-72
2023/01/14 00:10:12;;;;;;;;;;;;;;;12.66;73.95;101037.16;1051832;28;660;-72
2023/01/14 00:11:02;;;;;;;;;;;;;;;12.67;73.29;101032.66;1047908;28;1043;-72
2023/01/14 00:11:53;;;;;;;;;;;;;;;12.65;73.16;101032.78;1048631;28;617;-72
2023/01/14 00:12:43;;;;;;;;;;;;;;;12.66;73.36;101031.81;1048965;28;641;-72
2023/01/14 00:13:33;;;;;;;;;;;;;;;12.66;73.82;101026.47;1048121;28;680;-72
2023/01/14 00:14:24;;;;;;;;;;;;;;;12.66;73.10;101031.81;1048468;28;716;-72
2023/01/14 00:15:15;;;;;;;;;;;;;;;12.64;73.99;101028.38;1051427;28;1163;-72
2023/01/14 00:16:05;;;;;;;;;;;;;;;12.65;73.42;101030.09;1048365;28;680;-72
2023/01/14 00:16:56;;;;;;;;;;;;;;;12.65;73.50;101030.09;1050544;28;1159;-72
2023/01/14 00:17:47;;;;;;;;;;;;;;;12.67;73.94;101044.22;1048362;28;664;-72
2023/01/14 00:18:38;;;;;;;;;;;;;;;12.66;74.10;101036.31;1048624;28;1214;-72
2023/01/14 00:19:28;;;;;;;;;;;;;;;12.67;73.58;101030.00;1051746;28;709;-72
2023/01/14 00:20:19;;;;;;;;;;;;;;;12.66;73.93;101041.66;1051313;28;960;-72
2023/01/14 00:21:09;;;;;;;;;;;;;;;12.65;73.62;101030.09;1048719;28;629;-72
2023/01/14 00:22:00;;;;;;;;;;;;;;;12.66;73.20;101030.94;1051375;28;1119;-72
2023/01/14 00:22:50;;;;;;;;;;;;;;;12.65;73.69;101035.44;1048744;28;1055;-72
2023/01/14 00:23:40;;;;;;;;;;;;;;;12.64;73.51;101031.06;1048401;28;761;-72
2023/01/14 00:24:31;;;;;;;;;;;;;;;12.64;74.14;101031.06;1049017;28;1265;-72
2023/01/14 00:25:21;;;;;;;;;;;;;;;12.66;73.30;101033.63;1052942;28;694;-72
2023/01/14 00:26:12;;;;;;;;;;;;;;;12.63;73.25;101031.16;1051285;28;1245;-72
2023/01/14 00:27:02;;;;;;;;;;;;;;;12.64;74.15;101035.56;1052948;28;695;-72
2023/01/14 00:27:53;;;;;;;;;;;;;;;12.62;73.19;101030.31;1051818;28;626;-72
2023/01/14 00:28:43;;;;;;;;;;;;;;;12.60;73.48;101032.22;1052049;28;673;-72
2023/01/14 00:29:34;;;;;;;;;;;;;;;12.61;73.86;101041.09;1051675;28;1162;-71
2023/01/14 00:30:24;;;;;;;;;;;;;;;12.61;74.06;101036.63;1048315;28;645;-71
2023/01/14 00:31:14;;;;;;;;;;;;;;;12.63;73.19;101040.03;1051625;28;1271;-71
2023/01/14 00:32:05;;;;;;;;;;;;;;;12.63;73.26;101037.38;1048182;28;654;-71
2023/01/14 00:32:55;;;;;;;;;;;;;;;12.62;73.06;101040.16;1051749;28;1227;-72
2023/01/14 00:33:46;;;;;;;;;;;;;;;12.63;73.86;101041.84;1048306;28;651;-72
2023/01/14 00:34:36;;;;;;;;;;;;;;;12.62;73.34;101034.78;1050984;28;1180;-71
2023/01/14 00:35:27;;;;;;;;;;;;;;;12.62;73.49;101035.66;1051630;28;1206;-72
2023/01/14 00:36:17;;;;;;;;;;;;;;;12.61;73.20;101039.28;1051873;28;718;-72
2023/01/14 00:37:07;;;;;;;;;;;;;;;12.62;74.11;101030.31;1051685;28;717;-72
2023/01/14 00:37:58;;;;;;;;;;;;;;;12.63;73.71;101028.50;1052472;28;742;-71
2023/01/14 00:38:48;;;;;;;;;;;;;;;12.63;73.26;101031.16;1048704;28;674;-72
2023/01/14 00:39:39;;;;;;;;;;;;;;;12.62;73.29;101035.66;1049862;28;651;-71
2023/01/14 00:40:29;;;;;;;;;;;;;;;12.61;73.83;101033.94;1052088;28;1051;-71
2023/01/14 00:41:23;;;;;;;;;;;;;;;12.60;73.33;101032.22;1051587;28;1180;-71
2023/01/14 00:42:13;;;;;;;;;;;;;;;12.61;73.28;101033.94;1051890;28;1175;-71
2023/01/14 00:43:04;;;;;;;;;;;;;;;12.62;73.31;101029.44;1051671;28;722;-71
2023/01/14 00:43:54;;;;;;;;;;;;;;;12.62;73.33;101040.16;1051947;28;630;-71
2023/01/14 00:44:46;;;;;;;;;;;;;;;12.62;73.87;101035.66;1051601;28;642;-71
2023/01/14 00:45:36;;;;;;;;;;;;;;;12.62;73.20;101032.97;1051917;28;1206;-71
2023/01/14 00:46:27;;;;;;;;;;;;;;;12.61;74.18;101028.59;1048350;28;643;-72
2023/01/14 00:47:17;;;;;;;;;;;;;;;12.63;73.67;101037.38;1048375;28;678;-72
2023/01/14 00:48:07;;;;;;;;;;;;;;;12.60;73.68;101037.56;1047975;28;1091;-71
2023/01/14 00:48:58;;;;;;;;;;;;;;;12.61;73.40;101033.09;1051682;28;622;-71
2023/01/14 00:49:48;;;;;;;;;;;;;;;12.61;73.38;101027.75;1049877;28;1083;-72
2023/01/14 00:50:39;;;;;;;;;;;;;;;12.61;73.93;101028.59;1052560;28;651;-72
2023/01/14 00:51:29;;;;;;;;;;;;;;;12.60;74.02;101037.56;1052755;28;633;-72
2023/01/14 00:52:20;;;;;;;;;;;;;;;12.60;74.02;101032.22;1052861;28;1345;-71
2023/01/14 00:53:10;;;;;;;;;;;;;;;12.61;73.23;101028.59;1052698;28;619;-71
2023/01/14 00:54:01;;;;;;;;;;;;;;;12.59;73.26;101035.88;1052522;28;686;-72
2023/01/14 00:54:51;;;;;;;;;;;;;;;12.60;73.27;101037.56;1052519;28;1123;-71
2023/01/14 00:55:42;;;;;;;;;;;;;;;12.60;73.98;101037.56;1052310;28;999;-72
2023/01/14 00:56:32;;;;;;;;;;;;;;;12.61;74.10;101030.41;1052483;28;1120;-72
2023/01/14 00:57:22;;;;;;;;;;;;;;;12.62;73.45;101038.31;1049078;28;710;-72
2023/01/14 00:58:13;;;;;;;;;;;;;;;12.62;73.77;101035.66;1049825;28;622;-71
2023/01/14 00:59:03;;;;;;;;;;;;;;;12.62;73.31;101038.31;1050001;28;677;-71
2023/01/14 00:59:54;;;;;;;;;;;;;;;12.59;73.78;101043.88;1050634;28;1918;-72
2023/01/14 01:00:44;;;;;;;;;;;;;;;12.59;74.01;101038.53;1048522;28;698;-72
2023/01/14 01:01:35;;;;;;;;;;;;;;;12.60;73.57;101042.94;1049589;28;693;-72
2023/01/14 01:02:25;;;;;;;;;;;;;;;12.60;73.35;101042.94;1052534;28;1130;-71
2023/01/14 01:03:16;;;;;;;;;;;;;;;12.60;73.57;101034.91;1051694;28;1107;-71
2023/01/14 01:04:06;;;;;;;;;;;;;;;12.61;74.40;101039.28;1049671;28;708;-71
2023/01/14 01:04:56;;;;;;;;;;;;;;;12.63;74.00;101036.50;1051102;28;1154;-71
2023/01/14 01:05:47;;;;;;;;;;;;;;;12.64;74.32;101038.22;1048896;28;689;-72
2023/01/14 01:06:37;;;;;;;;;;;;;;;12.64;74.49;101039.06;1049285;28;710;-72
2023/01/14 01:07:28;;;;;;;;;;;;;;;12.65;74.52;101035.44;1052464;28;638;-72
2023/01/14 01:08:18;;;;;;;;;;;;;;;12.64;74.13;101025.72;1053114;28;1174;-72
2023/01/14 01:09:09;;;;;;;;;;;;;;;12.65;74.40;101040.78;1052418;28;669;-72
2023/01/14 01:09:59;;;;;;;;;;;;;;;12.64;74.24;101032.88;1052047;28;965;-72
2023/01/14 01:10:49;;;;;;;;;;;;;;;12.65;74.51;101034.59;1052346;28;681;-72
2023/01/14 01:11:40;;;;;;;;;;;;;;;12.64;74.36;101033.72;1052315;28;1055;-72
2023/01/14 01:12:30;;;;;;;;;;;;;;;12.63;74.49;101037.38;1052770;28;650;-71
2023/01/14 01:13:22;;;;;;;;;;;;;;;12.62;73.87;101032.97;1051857;28;623;-72
2023/01/14 01:14:13;;;;;;;;;;;;;;;12.61;73.96;101033.94;1052430;28;524;-72
2023/01/14 01:15:03;;;;;;;;;;;;;;;12.61;73.95;101036.63;1053115;28;702;-72
2023/01/14 01:15:53;;;;;;;;;;;;;;;12.62;74.49;101029.44;1052274;28;619;-72
2023/01/14 01:16:44;;;;;;;;;;;;;;;12.60;74.64;101031.38;1052629;28;661;-72
2023/01/14 01:17:35;;;;;;;;;;;;;;;12.60;74.09;101032.22;1049137;28;693;-72
2023/01/14 01:18:25;;;;;;;;;;;;;;;12.60;73.81;101020.69;1048589;28;1048;-72
2023/01/14 01:19:16;;;;;;;;;;;;;;;12.59;74.58;101027.00;1053668;28;1103;-74
2023/01/14 01:20:07;;;;;;;;;;;;;;;12.59;73.62;101027.84;1048324;28;1893;-72
2023/01/14 01:20:57;;;;;;;;;;;;;;;12.60;74.06;101018.00;1048095;28;728;-72
2023/01/14 01:21:48;;;;;;;;;;;;;;;12.62;73.87;101021.44;1048563;28;1514;-72
2023/01/14 01:22:38;;;;;;;;;;;;;;;12.62;74.22;101022.28;1048985;28;1005;-72
2023/01/14 01:23:29;;;;;;;;;;;;;;;12.60;73.76;101018.88;1049472;28;629;-71
2023/01/14 01:24:19;;;;;;;;;;;;;;;12.61;74.78;101025.91;1050023;28;1067;-71
2023/01/14 01:25:10;;;;;;;;;;;;;;;12.61;74.63;101028.59;1052363;28;618;-71
2023/01/14 01:26:00;;;;;;;;;;;;;;;12.62;73.85;101024.97;1052377;28;969;-72
2023/01/14 01:26:50;;;;;;;;;;;;;;;12.62;74.16;101024.97;1052313;28;617;-71
2023/01/14 01:27:41;;;;;;;;;;;;;;;12.63;73.72;101025.81;1052369;28;1221;-72
2023/01/14 01:28:31;;;;;;;;;;;;;;;12.61;74.43;101025.06;1052585;28;650;-72
2023/01/14 01:29:22;;;;;;;;;;;;;;;12.62;74.52;101018.75;1049891;28;769;-72
2023/01/14 01:30:12;;;;;;;;;;;;;;;12.63;73.87;101025.81;1053119;28;633;-72
2023/01/14 01:31:03;;;;;;;;;;;;;;;12.60;73.97;101026.88;1052712;28;1170;-72
2023/01/14 01:31:53;;;;;;;;;;;;;;;12.62;74.59;101027.63;1052598;28;673;-72
2023/01/14 01:32:43;;;;;;;;;;;;;;;12.62;73.87;101019.63;1053006;28;688;-72
2023/01/14 01:33:34;;;;;;;;;;;;;;;12.61;73.90;101022.41;1052849;28;1178;-72
2023/01/14 01:34:24;;;;;;;;;;;;;;;12.61;74.66;101025.91;1048934;28;690;-72
2023/01/14 01:35:15;;;;;;;;;;;;;;;12.62;74.63;101021.44;1049139;28;1183;-72
2023/01/14 01:36:05;;;;;;;;;;;;;;;12.63;73.71;101026.69;1048900;28;673;-72
2023/01/14 01:36:55;;;;;;;;;;;;;;;12.63;74.73;101025.81;1049244;28;661;-72
2023/01/14 01:37:46;;;;;;;;;;;;;;;12.62;73.73;101019.63;1049385;28;717;-72
2023/01/14 01:38:36;;;;;;;;;;;;;;;12.63;74.43;101020.47;1047997;28;642;-72
2023/01/14 01:39:27;;;;;;;;;;;;;;;12.62;74.30;101019.63;1052066;28;1083;-71
2023/01/14 01:40:17;;;;;;;;;;;;;;;12.62;73.72;101021.44;1052568;28;965;-71
2023/01/14 01:41:08;;;;;;;;;;;;;;;12.62;74.15;101026.78;1052167;28;1079;-72
2023/01/14 01:41:58;;;;;;;;;;;;;;;12.61;74.27;101023.25;1052432;28;702;-72
2023/01/14 01:42:55;;;;;;;;;;;;;;;12.61;74.01;101017.03;1053270;28;1146;-71
2023/01/14 01:43:45;;;;;;;;;;;;;;;12.63;73.94;101020.47;1052513;28;736;-71
2023/01/14 01:44:35;;;;;;;;;;;;;;;12.61;73.81;101023.25;1049762;28;724;-71
2023/01/14 01:45:26;;;;;;;;;;;;;;;12.59;74.43;101022.50;1047902;28;712;-71
2023/01/14 01:46:16;;;;;;;;;;;;;;;12.58;74.07;101022.59;1052798;28;1283;-71
2023/01/14 01:47:07;;;;;;;;;;;;;;;12.59;74.22;101025.16;1053448;28;728;-71
2023/01/14 01:47:57;;;;;;;;;;;;;;;12.60;74.81;101023.34;1052524;28;658;-71
2023/01/14 01:48:47;;;;;;;;;;;;;;;12.59;73.89;101025.16;1049099;28;1060;-72
2023/01/14 01:49:38;;;;;;;;;;;;;;;12.57;74.45;101032.44;1049329;28;697;-71
2023/01/14 01:50:28;;;;;;;;;;;;;;;12.59;74.67;101035.88;1050998;28;1086;-71
2023/01/14 01:51:19;;;;;;;;;;;;;;;12.59;74.39;101032.34;1048720;28;635;-71
2023/01/14 01:52:09;;;;;;;;;;;;;;;12.58;73.80;101039.50;1052607;28;1146;-71
2023/01/14 01:53:00;;;;;;;;;;;;;;;12.57;74.07;101037.78;1052135;28;1798;-71
2023/01/14 01:53:50;;;;;;;;;;;;;;;12.57;74.62;101036.94;1052430;28;654;-71
2023/01/14 01:54:40;;;;;;;;;;;;;;;12.55;74.04;101033.50;1051563;28;626;-71
2023/01/14 01:55:31;;;;;;;;;;;;;;;12.55;74.52;101030.84;1049567;28;1122;-71
2023/01/14 01:56:21;;;;;;;;;;;;;;;12.54;74.85;101032.66;1052394;28;1128;-71
2023/01/14 01:57:12;;;;;;;;;;;;;;;12.54;74.06;101027.31;1052112;28;1209;-71
2023/01/14 01:58:02;;;;;;;;;;;;;;;12.56;74.31;101036.06;1052356;28;677;-72
2023/01/14 01:58:53;;;;;;;;;;;;;;;12.53;74.35;101030.97;1052055;28;1178;-71
2023/01/14 01:59:43;;;;;;;;;;;;;;;12.52;74.92;101024.78;1052418;28;760;-71
2023/01/14 02:00:34;;;;;;;;;;;;;;;12.55;74.94;101026.34;1052293;28;633;-71
2023/01/14 02:01:24;;;;;;;;;;;;;;;12.55;74.97;101023.66;1052379;28;650;-71
2023/01/14 02:02:15;;;;;;;;;;;;;;;12.55;75.19;101023.66;1052878;28;1274;-71
2023/01/14 02:03:05;;;;;;;;;;;;;;;12.56;74.64;101020.03;1051803;28;706;-71
2023/01/14 02:03:55;;;;;;;;;;;;;;;12.57;74.81;101010.19;1053173;28;1119;-71
2023/01/14 02:04:46;;;;;;;;;;;;;;;12.60;74.14;101026.03;1052295;28;761;-71
2023/01/14 02:05:36;;;;;;;;;;;;;;;12.60;74.42;101018.88;1052329;28;1162;-71
2023/01/14 02:06:27;;;;;;;;;;;;;;;12.61;74.36;101017.03;1045415;28;1117;-71
2023/01/14 02:07:17;;;;;;;;;;;;;;;12.60;74.49;101021.53;1048279;28;1204;-71
2023/01/14 02:08:08;;;;;;;;;;;;;;;12.59;74.22;101019.81;1048976;28;1068;-71
2023/01/14 02:08:58;;;;;;;;;;;;;;;12.59;74.84;101018.97;1052386;28;633;-71
2023/01/14 02:09:48;;;;;;;;;;;;;;;12.58;74.37;101023.47;1048522;28;672;-71
2023/01/14 02:10:39;;;;;;;;;;;;;;;12.59;74.13;101021.66;1048679;28;653;-71
2023/01/14 02:11:29;;;;;;;;;;;;;;;12.56;74.75;101017.38;1048780;28;696;-71
2023/01/14 02:12:20;;;;;;;;;;;;;;;12.57;74.91;101015.53;1050465;28;1199;-71
2023/01/14 02:13:10;;;;;;;;;;;;;;;12.57;74.73;101012.88;1049015;28;637;-72
2023/01/14 02:14:01;;;;;;;;;;;;;;;12.55;74.02;101012.13;1047797;28;953;-71
2023/01/14 02:14:51;;;;;;;;;;;;;;;12.57;74.65;101007.53;1053465;28;648;-71
2023/01/14 02:15:41;;;;;;;;;;;;;;;12.54;73.98;101008.59;1051434;28;824;-71
2023/01/14 02:16:32;;;;;;;;;;;;;;;12.53;74.44;101006.91;1052212;28;697;-71
2023/01/14 02:17:22;;;;;;;;;;;;;;;12.54;74.20;101000.56;1053060;28;778;-71
2023/01/14 02:18:13;;;;;;;;;;;;;;;12.55;74.04;101002.28;1052661;28;1174;-71
2023/01/14 02:19:03;;;;;;;;;;;;;;;12.53;74.60;100996.22;1053499;28;742;-71
2023/01/14 02:19:54;;;;;;;;;;;;;;;12.53;74.24;100996.22;1051904;28;1953;-71
2023/01/14 02:20:45;;;;;;;;;;;;;;;12.53;74.18;100993.53;1051846;28;1528;-71
2023/01/14 02:21:35;;;;;;;;;;;;;;;12.54;74.99;100994.41;1047779;28;736;-71
2023/01/14 02:22:26;;;;;;;;;;;;;;;12.52;75.08;100989.16;1047441;28;662;-71
2023/01/14 02:23:16;;;;;;;;;;;;;;;12.53;74.95;100982.84;1049787;28;1233;-71
2023/01/14 02:24:07;;;;;;;;;;;;;;;12.52;74.44;100982.00;1048579;28;700;-71
2023/01/14 02:24:57;;;;;;;;;;;;;;;12.53;74.55;100977.50;1048624;28;724;-71
2023/01/14 02:25:47;;;;;;;;;;;;;;;12.52;74.05;100976.66;1048312;28;778;-71
2023/01/14 02:26:38;;;;;;;;;;;;;;;12.55;75.09;100974.69;1048623;28;649;-70
2023/01/14 02:27:28;;;;;;;;;;;;;;;12.51;74.27;100972.28;1048825;28;1230;-71
2023/01/14 02:28:19;;;;;;;;;;;;;;;12.55;74.95;100974.69;1052217;28;618;-70
2023/01/14 02:29:09;;;;;;;;;;;;;;;12.53;74.78;100961.47;1046310;28;1554;-70
2023/01/14 02:30:00;;;;;;;;;;;;;;;12.54;74.20;100947.09;1045780;28;1242;-71
2023/01/14 02:30:50;;;;;;;;;;;;;;;12.52;74.58;100955.28;1050996;28;1150;-71
2023/01/14 02:31:40;;;;;;;;;;;;;;;12.52;74.35;100960.63;1050169;28;638;-71
2023/01/14 02:32:31;;;;;;;;;;;;;;;12.52;74.06;100949.06;1052136;28;1217;-70
2023/01/14 02:33:21;;;;;;;;;;;;;;;12.53;74.90;100950.78;1052302;28;663;-72
2023/01/14 02:34:12;;;;;;;;;;;;;;;12.52;74.23;100954.41;1052633;28;1206;-72
2023/01/14 02:35:02;;;;;;;;;;;;;;;12.53;74.91;100956.13;1052225;28;690;-72
2023/01/14 02:35:53;;;;;;;;;;;;;;;12.52;75.14;100955.28;1051907;28;1154;-72
2023/01/14 02:36:43;;;;;;;;;;;;;;;12.52;74.15;100951.75;1051708;28;718;-72
2023/01/14 02:37:33;;;;;;;;;;;;;;;12.55;75.01;100950.63;1052188;28;1147;-72
2023/01/14 02:38:24;;;;;;;;;;;;;;;12.54;74.59;100947.09;1052143;28;821;-72
2023/01/14 02:39:14;;;;;;;;;;;;;;;12.54;74.93;100939.09;1052383;28;650;-72
2023/01/14 02:40:05;;;;;;;;;;;;;;;12.52;74.37;100944.56;1052710;28;1953;-72
2023/01/14 02:40:55;;;;;;;;;;;;;;;12.53;74.49;100945.44;1052879;28;688;-72
2023/01/14 02:44:08;;;;;;;;;;;;;;;12.49;75.07;100939.44;1048784;28;637;-72
2023/01/14 02:44:58;;;;;;;;;;;;;;;12.51;74.36;100947.34;1052565;28;1091;-72
2023/01/14 02:45:48;;;;;;;;;;;;;;;12.51;74.84;100947.34;1052701;28;1158;-72
2023/01/14 02:46:39;;;;;;;;;;;;;;;12.52;74.27;100941.03;1048504;28;649;-72
2023/01/14 02:47:29;;;;;;;;;;;;;;;12.49;74.40;100944.78;1051187;28;1664;-72
2023/01/14 02:48:20;;;;;;;;;;;;;;;12.51;74.92;100944.69;1047934;28;606;-73
2023/01/14 02:49:10;;;;;;;;;;;;;;;12.51;74.17;100948.22;1049954;28;1162;-72
2023/01/14 02:50:01;;;;;;;;;;;;;;;12.51;74.63;100948.22;1048706;28;783;-72
2023/01/14 02:50:51;;;;;;;;;;;;;;;12.50;75.17;100948.31;1047152;28;1043;-72
2023/01/14 02:51:41;;;;;;;;;;;;;;;12.50;75.15;100942.97;1053314;28;644;-72
2023/01/14 02:52:32;;;;;;;;;;;;;;;12.47;75.20;100943.19;1052714;28;726;-72
2023/01/14 02:53:22;;;;;;;;;;;;;;;12.48;74.74;100943.06;1052290;28;653;-72
2023/01/14 02:54:13;;;;;;;;;;;;;;;12.51;74.62;100947.34;1047311;28;1155;-72
2023/01/14 02:55:04;;;;;;;;;;;;;;;12.50;74.45;100945.66;1049485;28;661;-72
2023/01/14 02:55:55;;;;;;;;;;;;;;;12.50;74.17;100946.50;1051061;28;693;-72
2023/01/14 02:56:45;;;;;;;;;;;;;;;12.51;75.01;100950.88;1052694;28;692;-72
2023/01/14 02:57:36;;;;;;;;;;;;;;;12.51;75.00;100942.00;1051040;28;879;-72
2023/01/14 02:58:26;;;;;;;;;;;;;;;12.51;74.54;100942.00;1052158;28;622;-72
2023/01/14 02:59:17;;;;;;;;;;;;;;;12.50;74.97;100943.81;1052542;28;703;-72
2023/01/14 03:00:07;;;;;;;;;;;;;;;12.49;75.17;100935.91;1052758;28;1913;-72
2023/01/14 03:00:58;;;;;;;;;;;;;;;12.49;74.21;100938.59;1052560;28;677;-72
2023/01/14 03:01:48;;;;;;;;;;;;;;;12.47;74.34;100933.34;1052049;28;1252;-72
2023/01/14 03:02:42;;;;;;;;;;;;;;;12.47;74.81;100943.19;1048518;28;642;-72
2023/01/14 03:03:33;;;;;;;;;;;;;;;12.47;75.27;100929.81;1051525;28;1260;-72
2023/01/14 03:04:23;;;;;;;;;;;;;;;12.47;75.12;100940.50;1048756;28;1039;-72
2023/01/14 03:05:14;;;;;;;;;;;;;;;12.46;75.05;100934.31;1051906;28;746;-73
2023/01/14 03:06:04;;;;;;;;;;;;;;;12.47;75.16;100930.69;1051529;28;1208;-73
2023/01/14 03:06:55;;;;;;;;;;;;;;;12.48;75.26;100932.38;1051845;28;706;-72
2023/01/14 03:07:45;;;;;;;;;;;;;;;12.48;74.88;100942.22;1052090;28;737;-72
2023/01/14 03:08:36;;;;;;;;;;;;;;;12.46;75.08;100945.00;1052602;28;831;-72
2023/01/14 03:09:26;;;;;;;;;;;;;;;12.45;75.15;100943.28;1052242;28;712;-72
2023/01/14 03:10:17;;;;;;;;;;;;;;;12.47;74.83;100941.38;1052486;28;698;-72
2023/01/14 03:11:07;;;;;;;;;;;;;;;12.46;75.14;100941.47;1052536;28;1254;-72
2023/01/14 03:11:57;;;;;;;;;;;;;;;12.44;75.36;100933.56;1048552;28;1494;-72
2023/01/14 03:12:48;;;;;;;;;;;;;;;12.43;75.13;100931.00;1046379;28;1105;-72
2023/01/14 03:13:38;;;;;;;;;;;;;;;12.44;75.01;100933.56;1053092;28;1004;-71
2023/01/14 03:14:29;;;;;;;;;;;;;;;12.46;74.68;100936.97;1051961;28;700;-72
2023/01/14 03:15:19;;;;;;;;;;;;;;;12.46;75.34;100930.78;1048589;28;736;-72
2023/01/14 03:16:10;;;;;;;;;;;;;;;12.45;74.90;100937.94;1048288;28;630;-72
2023/01/14 03:17:00;;;;;;;;;;;;;;;12.46;74.83;100933.44;1049574;28;1087;-72
2023/01/14 03:17:50;;;;;;;;;;;;;;;12.46;75.03;100939.66;1052356;28;666;-72
2023/01/14 03:18:41;;;;;;;;;;;;;;;12.44;74.54;100925.53;1049363;28;1044;-72
2023/01/14 03:19:33;;;;;;;;;;;;;;;12.42;74.64;100919.44;1048769;28;732;-72
2023/01/14 03:20:24;;;;;;;;;;;;;;;12.44;74.84;100927.38;1047418;28;1107;-72
2023/01/14 03:21:14;;;;;;;;;;;;;;;12.44;75.20;100916.66;1053210;28;670;-72
2023/01/14 03:22:05;;;;;;;;;;;;;;;12.42;74.38;100908.75;1051673;28;1219;-72
2023/01/14 03:22:55;;;;;;;;;;;;;;;12.44;75.15;100924.69;1048527;28;738;-72
2023/01/14 03:23:46;;;;;;;;;;;;;;;12.43;74.58;100914.97;1049080;28;1174;-72
2023/01/14 03:24:36;;;;;;;;;;;;;;;12.43;74.92;100918.50;1053116;28;854;-72
2023/01/14 03:25:27;;;;;;;;;;;;;;;12.44;75.09;100912.19;1049026;28;688;-71
2023/01/14 03:26:17;;;;;;;;;;;;;;;12.43;75.07;100917.63;1049899;28;995;-72
2023/01/14 03:27:07;;;;;;;;;;;;;;;12.44;74.39;100919.34;1051791;28;1027;-71
2023/01/14 03:27:58;;;;;;;;;;;;;;;12.44;74.53;100920.19;1051870;28;924;-71
2023/01/14 03:28:49;;;;;;;;;;;;;;;12.44;75.28;100911.31;1051801;28;1078;-71
2023/01/14 03:29:40;;;;;;;;;;;;;;;12.46;75.09;100912.06;1052725;28;999;-71
2023/01/14 03:30:30;;;;;;;;;;;;;;;12.48;74.98;100910.16;1052128;28;1090;-71
2023/01/14 03:31:21;;;;;;;;;;;;;;;12.45;74.96;100910.34;1051621;28;1013;-71
2023/01/14 03:32:11;;;;;;;;;;;;;;;12.46;74.88;100912.06;1052156;28;1055;-71
2023/01/14 03:33:02;;;;;;;;;;;;;;;12.44;75.09;100904.16;1053642;28;984;-71
2023/01/14 03:33:52;;;;;;;;;;;;;;;12.44;75.23;100897.97;1052269;28;1110;-72
2023/01/14 03:34:42;;;;;;;;;;;;;;;12.46;74.47;100901.38;1052590;28;1032;-72
2023/01/14 03:35:33;;;;;;;;;;;;;;;12.47;74.44;100893.25;1052307;28;1074;-71
2023/01/14 03:36:23;;;;;;;;;;;;;;;12.44;74.70;100893.47;1053034;28;1008;-71
2023/01/14 03:37:14;;;;;;;;;;;;;;;12.46;74.53;100888.03;1049113;28;1185;-71
2023/01/14 03:38:04;;;;;;;;;;;;;;;12.45;74.70;100887.16;1051961;28;1042;-72
2023/01/14 03:38:55;;;;;;;;;;;;;;;12.44;74.75;100888.13;1052469;28;1153;-72
2023/01/14 03:39:45;;;;;;;;;;;;;;;12.44;75.02;100881.94;1051258;28;966;-72
2023/01/14 03:40:35;;;;;;;;;;;;;;;12.45;74.83;100884.50;1050146;28;1076;-72
2023/01/14 03:42:35;;;;;;;;;;;;;;;12.44;74.44;100879.25;1052425;28;1191;-71
2023/01/14 03:43:25;;;;;;;;;;;;;;;12.44;74.55;100882.78;1051180;28;1171;-72
2023/01/14 03:44:16;;;;;;;;;;;;;;;12.44;75.18;100871.22;1052369;28;1139;-71
2023/01/14 03:45:06;;;;;;;;;;;;;;;12.42;74.40;100873.16;1051333;28;1155;-71
2023/01/14 03:45:57;;;;;;;;;;;;;;;12.39;75.07;100878.72;1052470;28;1147;-71
2023/01/14 03:46:47;;;;;;;;;;;;;;;12.38;75.16;100871.66;1051460;28;1191;-71
2023/01/14 03:47:38;;;;;;;;;;;;;;;12.41;75.38;100866.09;1052622;28;749;-73
2023/01/14 03:48:28;;;;;;;;;;;;;;;12.40;74.91;100864.41;1051814;28;673;-73
2023/01/14 03:49:18;;;;;;;;;;;;;;;12.41;74.86;100868.78;1051501;28;1131;-74
2023/01/14 03:50:09;;;;;;;;;;;;;;;12.43;74.88;100865.03;1051594;28;996;-74
2023/01/14 03:50:59;;;;;;;;;;;;;;;12.42;75.42;100868.66;1052081;28;681;-73
2023/01/14 03:51:50;;;;;;;;;;;;;;;12.43;75.07;100864.19;1051522;28;1008;-73
2023/01/14 03:52:40;;;;;;;;;;;;;;;12.42;74.85;100859.78;1051948;28;664;-73
2023/01/14 03:53:31;;;;;;;;;;;;;;;12.42;75.35;100857.13;1051567;28;1210;-73
2023/01/14 03:54:21;;;;;;;;;;;;;;;12.43;75.07;100853.50;1052375;28;637;-73
2023/01/14 03:55:12;;;;;;;;;;;;;;;12.40;75.26;100851.88;1049643;28;1015;-73
2023/01/14 03:56:02;;;;;;;;;;;;;;;12.40;75.50;100853.72;1052026;28;703;-73
2023/01/14 03:56:53;;;;;;;;;;;;;;;12.39;74.74;100852.00;1051495;28;756;-74
2023/01/14 03:57:43;;;;;;;;;;;;;;;12.39;74.95;100844.84;1052952;28;1150;-74
2023/01/14 03:58:34;;;;;;;;;;;;;;;12.39;74.84;100843.97;1052005;28;743;-73
2023/01/14 03:59:24;;;;;;;;;;;;;;;12.39;75.17;100852.00;1047731;28;607;-73
2023/01/14 04:00:14;;;;;;;;;;;;;;;12.40;75.53;100837.66;1048424;28;1979;-73
2023/01/14 04:01:05;;;;;;;;;;;;;;;12.41;75.48;100840.25;1051926;28;618;-73
2023/01/14 04:01:55;;;;;;;;;;;;;;;12.42;75.45;100846.44;1048438;28;696;-73
2023/01/14 04:02:46;;;;;;;;;;;;;;;12.42;75.35;100841.94;1051752;28;615;-73
2023/01/14 04:03:36;;;;;;;;;;;;;;;12.41;74.52;100834.03;1048431;28;656;-73
2023/01/14 04:04:27;;;;;;;;;;;;;;;12.40;75.58;100835.84;1048154;28;685;-73
2023/01/14 04:05:17;;;;;;;;;;;;;;;12.38;74.78;100836.94;1047764;28;674;-73
2023/01/14 04:06:08;;;;;;;;;;;;;;;12.39;75.26;100833.28;1048791;28;693;-73
2023/01/14 04:06:58;;;;;;;;;;;;;;;12.39;74.79;100835.97;1052483;28;676;-73
2023/01/14 04:07:49;;;;;;;;;;;;;;;12.40;75.09;100833.19;1051658;28;674;-74
2023/01/14 04:08:39;;;;;;;;;;;;;;;12.40;75.52;100827.84;1051845;28;1127;-73
2023/01/14 04:09:30;;;;;;;;;;;;;;;12.40;75.21;100835.00;1052164;28;714;-74
2023/01/14 04:10:20;;;;;;;;;;;;;;;12.39;74.65;100836.81;1051771;28;1154;-74
2023/01/14 04:11:11;;;;;;;;;;;;;;;12.38;75.06;100835.09;1052007;28;749;-74
2023/01/14 04:12:01;;;;;;;;;;;;;;;12.40;75.48;100841.19;1051577;28;1649;-73
2023/01/14 04:15:22;;;;;;;;;;;;;;;12.37;75.58;100838.75;1048646;28;680;-74
2023/01/14 04:16:12;;;;;;;;;;;;;;;12.38;75.23;100842.28;1048350;28;633;-72
2023/01/14 04:17:03;;;;;;;;;;;;;;;12.36;74.94;100830.88;1051530;28;1188;-71
2023/01/14 04:17:53;;;;;;;;;;;;;;;12.36;74.72;100830.88;1044950;28;700;-71
2023/01/14 04:18:44;;;;;;;;;;;;;;;12.35;75.73;100823.81;1047988;28;1266;-71
2023/01/14 04:19:34;;;;;;;;;;;;;;;12.36;75.33;100820.19;1048730;28;1084;-72
2023/01/14 04:20:24;;;;;;;;;;;;;;;12.37;74.84;100820.03;1052077;28;681;-71
2023/01/14 04:21:15;;;;;;;;;;;;;;;12.36;74.96;100815.66;1051742;28;636;-71
2023/01/14 04:22:05;;;;;;;;;;;;;;;12.36;74.83;100812.16;1051809;28;1162;-72
2023/01/14 04:22:56;;;;;;;;;;;;;;;12.37;74.72;100816.50;1048798;28;693;-71
2023/01/14 04:23:46;;;;;;;;;;;;;;;12.38;75.66;100810.19;1048518;28;689;-71
2023/01/14 04:24:37;;;;;;;;;;;;;;;12.37;75.68;100812.03;1052487;28;1163;-72
2023/01/14 04:25:27;;;;;;;;;;;;;;;12.38;75.68;100812.88;1052608;28;693;-71
2023/01/14 04:26:17;;;;;;;;;;;;;;;12.38;75.65;100811.06;1052740;28;1229;-71
2023/01/14 04:27:08;;;;;;;;;;;;;;;12.38;75.47;100796.84;1052549;28;686;-72
2023/01/14 04:27:58;;;;;;;;;;;;;;;12.38;75.01;100799.50;1049397;28;683;-71
2023/01/14 04:28:49;;;;;;;;;;;;;;;12.35;75.31;100791.75;1048627;28;658;-71
2023/01/14 04:29:39;;;;;;;;;;;;;;;12.35;75.64;100797.09;1053122;28;665;-71
2023/01/14 04:30:30;;;;;;;;;;;;;;;12.35;75.73;100799.75;1052860;28;704;-73